Fin-ally — WDG3773 — position and weather

sailwx.info

Track history (hours):
 
Tides and Currents Weather Stations Pressure Air Temp Water Temp Dewpoint Dewpoint Depression Visibility Wind Speed Wind Dir Waves Ship Positions

Fin-ally

Owner: Siegel, Andrew, Newtown, CT. More information available from US FCC via Universal Licensing System and Coast Guard Vessel Documentation Center.

Last reported at 2015-Aug-05 03:31 UTC. Time now 2015-Aug-05 04:20 UTC.
Position N 41°11' W 071°35'.

Type: Pleasure craft. MMSI: 367529510.

Date/timePositionNaut miles runAvg speedWind from/ knotsBaromVisibWave heightAir tempDewpointWater temp
2015-Aug-05 03:31N 41°11' W 071°35'0 0.0
2015-Aug-05 02:31N 41°11' W 071°35'0 0.0
2015-Aug-05 01:25N 41°11' W 071°35'0 0.0
2015-Aug-05 00:31N 41°11' W 071°35'0 0.0
2015-Aug-04 23:31N 41°11' W 071°35'0 0.0
2015-Aug-04 22:31N 41°11' W 071°35'0 0.0
2015-Aug-04 21:28N 41°11' W 071°35'3 2.9
2015-Aug-04 20:33N 41°09' W 071°38'2424.4
2015-Aug-04 19:33N 40°45' W 071°33'2525.1
2015-Aug-04 18:33N 40°21' W 071°26'1110.6
2015-Aug-04 17:33N 40°10' W 071°23'7 5.6
2015-Aug-04 16:16N 40°03' W 071°22'5 0.4
2015-Aug-04 02:30N 39°58' W 071°20'1 0.7
2015-Aug-04 01:08N 39°59' W 071°19'1 1.3
2015-Aug-04 00:33N 39°60' W 071°20'72 4.0
2015-Aug-03 06:31N 41°11' W 071°35'0 0.0
2015-Aug-03 05:33N 41°11' W 071°35'0 0.0
2015-Aug-03 04:31N 41°11' W 071°35'0 0.0
2015-Aug-03 03:28N 41°11' W 071°35'0 0.0
2015-Aug-03 02:32N 41°11' W 071°35'0 0.0
2015-Aug-03 01:32N 41°11' W 071°35'0 0.0
2015-Aug-03 00:32N 41°11' W 071°35'0 0.0
2015-Aug-02 23:32N 41°11' W 071°35'0 0.0
2015-Aug-02 22:32N 41°11' W 071°35'0 0.0
2015-Aug-02 21:32N 41°11' W 071°35'0 0.0
2015-Aug-02 20:32N 41°11' W 071°35'1212.4
2015-Aug-02 19:33N 41°13' W 071°51'1616.4
2015-Aug-02 18:33N 41°20' W 072°11'0 0.4
2015-Aug-02 17:33N 41°20' W 072°11'0 0.0
2015-Aug-01 22:09N 41°20' W 072°11'1016.1
2015-Aug-01 21:33N 41°18' W 071°59'5 4.9
2015-Aug-01 20:33N 41°19' W 071°52'0 0.0
2015-Aug-01 19:30N 41°19' W 071°52'0 0.0
2015-Aug-01 18:33N 41°19' W 071°52'0 0.0
2015-Aug-01 17:33N 41°19' W 071°52'0 0.0
2015-Aug-01 16:33N 41°19' W 071°52'0 0.0
2015-Aug-01 15:33N 41°19' W 071°52'0 0.0
2015-Aug-01 14:33N 41°19' W 071°52'0 0.0
2015-Aug-01 13:33N 41°19' W 071°52'0 0.0
2015-Aug-01 12:33N 41°19' W 071°52'0 0.0
2015-Aug-01 11:33N 41°19' W 071°52'0 0.0
2015-Aug-01 10:33N 41°19' W 071°52'0 0.0
2015-Aug-01 09:30N 41°19' W 071°52'0 0.0
2015-Aug-01 08:33N 41°19' W 071°52'0 0.0
2015-Aug-01 07:33N 41°19' W 071°52'0 0.0
2015-Aug-01 06:33N 41°19' W 071°52'0 0.0
2015-Aug-01 05:33N 41°19' W 071°52'0 0.0
2015-Aug-01 04:30N 41°19' W 071°52'0 0.0
2015-Aug-01 03:33N 41°19' W 071°52'0 0.0
2015-Aug-01 02:33N 41°19' W 071°52'0 0.0
2015-Aug-01 01:33N 41°19' W 071°52'0 0.0
2015-Aug-01 00:33N 41°19' W 071°52'0 0.0
2015-Jul-31 23:33N 41°19' W 071°52'0 0.0
2015-Jul-31 22:33N 41°19' W 071°52'0 0.0
2015-Jul-31 21:33N 41°19' W 071°52'15 1.7
2015-Jul-31 12:25N 41°11' W 071°35'0 0.0
2015-Jul-31 11:32N 41°11' W 071°35'0 0.0
2015-Jul-31 10:32N 41°11' W 071°35'0 0.0
2015-Jul-31 09:32N 41°11' W 071°35'0 0.0
2015-Jul-31 08:32N 41°11' W 071°35'0 0.0
2015-Jul-31 07:31N 41°11' W 071°35'0 0.0
2015-Jul-31 06:31N 41°11' W 071°35'0 0.0
2015-Jul-31 05:31N 41°11' W 071°35'0 0.0
2015-Jul-31 04:31N 41°11' W 071°35'0 0.0
2015-Jul-31 03:31N 41°12' W 071°35'0 0.0
2015-Jul-31 02:31N 41°12' W 071°35'0 0.0
2015-Jul-31 01:31N 41°12' W 071°35'0 0.0
2015-Jul-31 00:31N 41°12' W 071°35'0 0.0
2015-Jul-30 23:31N 41°12' W 071°35'0 0.0
2015-Jul-30 22:31N 41°12' W 071°35'0 0.0
2015-Jul-30 21:31N 41°12' W 071°35'0 0.0
2015-Jul-30 20:31N 41°12' W 071°35'0 0.0
2015-Jul-30 19:31N 41°12' W 071°35'0 0.0
2015-Jul-30 18:31N 41°12' W 071°35'0 0.0
2015-Jul-30 17:31N 41°12' W 071°35'0 0.0
2015-Jul-30 16:31N 41°12' W 071°35'0 0.0
2015-Jul-30 15:31N 41°12' W 071°35'0 0.0
2015-Jul-30 14:31N 41°12' W 071°35'0 0.0
2015-Jul-30 13:31N 41°12' W 071°35'0 0.0
2015-Jul-30 12:31N 41°12' W 071°35'0 0.0
2015-Jul-30 11:31N 41°12' W 071°35'0 0.0
2015-Jul-30 10:31N 41°12' W 071°35'0 0.0
2015-Jul-30 09:32N 41°12' W 071°35'0 0.0
2015-Jul-30 08:32N 41°12' W 071°35'0 0.0
2015-Jul-30 07:32N 41°12' W 071°35'0 0.0
2015-Jul-30 06:32N 41°12' W 071°35'0 0.0
2015-Jul-30 05:32N 41°12' W 071°35'0 0.0
2015-Jul-30 04:32N 41°12' W 071°35'0 0.0
2015-Jul-30 03:26N 41°12' W 071°35'0 0.0
2015-Jul-30 02:32N 41°12' W 071°35'0 0.0
2015-Jul-30 01:31N 41°12' W 071°35'0 0.0
2015-Jul-30 00:32N 41°12' W 071°35'0 0.0
2015-Jul-29 23:32N 41°12' W 071°35'0 0.0
2015-Jul-29 22:29N 41°12' W 071°35'0 0.0
2015-Jul-29 21:29N 41°12' W 071°35'0 0.0
2015-Jul-29 20:32N 41°12' W 071°35'0 0.0
2015-Jul-29 19:29N 41°12' W 071°35'6 6.3
2015-Jul-29 18:33N 41°13' W 071°42'2222.4
2015-Jul-29 17:33N 41°20' W 072°11'  
Track history (hours):
 
Tides and Currents Weather Stations Pressure Air Temp Water Temp Dewpoint Dewpoint Depression Visibility Wind Speed Wind Dir Waves Ship Positions

Fin-ally

Owner: Siegel, Andrew, Newtown, CT. More information available from US FCC via Universal Licensing System and Coast Guard Vessel Documentation Center.

Last reported at 2015-Aug-05 03:31 UTC. Time now 2015-Aug-05 04:20 UTC.
Position N 41°11' W 071°35'.

Type: Pleasure craft. MMSI: 367529510.

Date/timePositionNaut miles runAvg speedWind from/ knotsBaromVisibWave heightAir tempDewpointWater temp
2015-Aug-05 03:31N 41°11' W 071°35'0 0.0
2015-Aug-05 02:31N 41°11' W 071°35'0 0.0
2015-Aug-05 01:25N 41°11' W 071°35'0 0.0
2015-Aug-05 00:31N 41°11' W 071°35'0 0.0
2015-Aug-04 23:31N 41°11' W 071°35'0 0.0
2015-Aug-04 22:31N 41°11' W 071°35'0 0.0
2015-Aug-04 21:28N 41°11' W 071°35'3 2.9
2015-Aug-04 20:33N 41°09' W 071°38'2424.4
2015-Aug-04 19:33N 40°45' W 071°33'2525.1
2015-Aug-04 18:33N 40°21' W 071°26'1110.6
2015-Aug-04 17:33N 40°10' W 071°23'7 5.6
2015-Aug-04 16:16N 40°03' W 071°22'5 0.4
2015-Aug-04 02:30N 39°58' W 071°20'1 0.7
2015-Aug-04 01:08N 39°59' W 071°19'1 1.3
2015-Aug-04 00:33N 39°60' W 071°20'72 4.0
2015-Aug-03 06:31N 41°11' W 071°35'0 0.0
2015-Aug-03 05:33N 41°11' W 071°35'0 0.0
2015-Aug-03 04:31N 41°11' W 071°35'0 0.0
2015-Aug-03 03:28N 41°11' W 071°35'0 0.0
2015-Aug-03 02:32N 41°11' W 071°35'0 0.0
2015-Aug-03 01:32N 41°11' W 071°35'0 0.0
2015-Aug-03 00:32N 41°11' W 071°35'0 0.0
2015-Aug-02 23:32N 41°11' W 071°35'0 0.0
2015-Aug-02 22:32N 41°11' W 071°35'0 0.0
2015-Aug-02 21:32N 41°11' W 071°35'0 0.0
2015-Aug-02 20:32N 41°11' W 071°35'1212.4
2015-Aug-02 19:33N 41°13' W 071°51'1616.4
2015-Aug-02 18:33N 41°20' W 072°11'0 0.4
2015-Aug-02 17:33N 41°20' W 072°11'0 0.0
2015-Aug-01 22:09N 41°20' W 072°11'1016.1
2015-Aug-01 21:33N 41°18' W 071°59'5 4.9
2015-Aug-01 20:33N 41°19' W 071°52'0 0.0
2015-Aug-01 19:30N 41°19' W 071°52'0 0.0
2015-Aug-01 18:33N 41°19' W 071°52'0 0.0
2015-Aug-01 17:33N 41°19' W 071°52'0 0.0
2015-Aug-01 16:33N 41°19' W 071°52'0 0.0
2015-Aug-01 15:33N 41°19' W 071°52'0 0.0
2015-Aug-01 14:33N 41°19' W 071°52'0 0.0
2015-Aug-01 13:33N 41°19' W 071°52'0 0.0
2015-Aug-01 12:33N 41°19' W 071°52'0 0.0
2015-Aug-01 11:33N 41°19' W 071°52'0 0.0
2015-Aug-01 10:33N 41°19' W 071°52'0 0.0
2015-Aug-01 09:30N 41°19' W 071°52'0 0.0
2015-Aug-01 08:33N 41°19' W 071°52'0 0.0
2015-Aug-01 07:33N 41°19' W 071°52'0 0.0
2015-Aug-01 06:33N 41°19' W 071°52'0 0.0
2015-Aug-01 05:33N 41°19' W 071°52'0 0.0
2015-Aug-01 04:30N 41°19' W 071°52'0 0.0
2015-Aug-01 03:33N 41°19' W 071°52'0 0.0
2015-Aug-01 02:33N 41°19' W 071°52'0 0.0
2015-Aug-01 01:33N 41°19' W 071°52'0 0.0
2015-Aug-01 00:33N 41°19' W 071°52'0 0.0
2015-Jul-31 23:33N 41°19' W 071°52'0 0.0
2015-Jul-31 22:33N 41°19' W 071°52'0 0.0
2015-Jul-31 21:33N 41°19' W 071°52'15 1.7
2015-Jul-31 12:25N 41°11' W 071°35'0 0.0
2015-Jul-31 11:32N 41°11' W 071°35'0 0.0
2015-Jul-31 10:32N 41°11' W 071°35'0 0.0
2015-Jul-31 09:32N 41°11' W 071°35'0 0.0
2015-Jul-31 08:32N 41°11' W 071°35'0 0.0
2015-Jul-31 07:31N 41°11' W 071°35'0 0.0
2015-Jul-31 06:31N 41°11' W 071°35'0 0.0
2015-Jul-31 05:31N 41°11' W 071°35'0 0.0
2015-Jul-31 04:31N 41°11' W 071°35'0 0.0
2015-Jul-31 03:31N 41°12' W 071°35'0 0.0
2015-Jul-31 02:31N 41°12' W 071°35'0 0.0
2015-Jul-31 01:31N 41°12' W 071°35'0 0.0
2015-Jul-31 00:31N 41°12' W 071°35'0 0.0
2015-Jul-30 23:31N 41°12' W 071°35'0 0.0
2015-Jul-30 22:31N 41°12' W 071°35'0 0.0
2015-Jul-30 21:31N 41°12' W 071°35'0 0.0
2015-Jul-30 20:31N 41°12' W 071°35'0 0.0
2015-Jul-30 19:31N 41°12' W 071°35'0 0.0
2015-Jul-30 18:31N 41°12' W 071°35'0 0.0
2015-Jul-30 17:31N 41°12' W 071°35'0 0.0
2015-Jul-30 16:31N 41°12' W 071°35'0 0.0
2015-Jul-30 15:31N 41°12' W 071°35'0 0.0
2015-Jul-30 14:31N 41°12' W 071°35'0 0.0
2015-Jul-30 13:31N 41°12' W 071°35'0 0.0
2015-Jul-30 12:31N 41°12' W 071°35'0 0.0
2015-Jul-30 11:31N 41°12' W 071°35'0 0.0
2015-Jul-30 10:31N 41°12' W 071°35'0 0.0
2015-Jul-30 09:32N 41°12' W 071°35'0 0.0
2015-Jul-30 08:32N 41°12' W 071°35'0 0.0
2015-Jul-30 07:32N 41°12' W 071°35'0 0.0
2015-Jul-30 06:32N 41°12' W 071°35'0 0.0
2015-Jul-30 05:32N 41°12' W 071°35'0 0.0
2015-Jul-30 04:32N 41°12' W 071°35'0 0.0
2015-Jul-30 03:26N 41°12' W 071°35'0 0.0
2015-Jul-30 02:32N 41°12' W 071°35'0 0.0
2015-Jul-30 01:31N 41°12' W 071°35'0 0.0
2015-Jul-30 00:32N 41°12' W 071°35'0 0.0
2015-Jul-29 23:32N 41°12' W 071°35'0 0.0
2015-Jul-29 22:29N 41°12' W 071°35'0 0.0
2015-Jul-29 21:29N 41°12' W 071°35'0 0.0
2015-Jul-29 20:32N 41°12' W 071°35'0 0.0
2015-Jul-29 19:29N 41°12' W 071°35'6 6.3
2015-Jul-29 18:33N 41°13' W 071°42'2222.4
2015-Jul-29 17:33N 41°20' W 072°11'  

Dump ship's entire track history